createdAt,value
2017-02-26T00:00:24.672Z,1006.81
2017-02-26T00:01:05.332Z,1006.84
2017-02-26T00:01:45.987Z,1006.82
2017-02-26T00:02:26.719Z,1006.82
2017-02-26T00:03:08.439Z,1006.82
2017-02-26T00:03:49.075Z,1006.75
2017-02-26T00:04:29.720Z,1006.79
2017-02-26T00:05:10.491Z,1006.83
2017-02-26T00:05:51.167Z,1006.85
2017-02-26T00:06:31.779Z,1006.79
2017-02-26T00:07:12.435Z,1006.79
2017-02-26T00:07:53.092Z,1006.79
2017-02-26T00:08:33.800Z,1006.82
2017-02-26T00:09:14.454Z,1006.7
2017-02-26T00:09:55.060Z,1006.76
2017-02-26T00:10:35.736Z,1006.79
2017-02-26T00:11:16.366Z,1006.81
2017-02-26T00:11:57.001Z,1006.8
2017-02-26T00:12:37.682Z,1006.72
2017-02-26T00:13:18.308Z,1006.74
2017-02-26T00:13:59.002Z,1006.74
2017-02-26T00:14:39.633Z,1006.71
2017-02-26T00:15:20.218Z,1006.69
2017-02-26T00:16:00.890Z,1006.69
2017-02-26T00:16:41.488Z,1006.66
2017-02-26T00:17:22.139Z,1006.68
2017-02-26T00:18:02.764Z,1006.7
2017-02-26T00:18:43.444Z,1006.64
2017-02-26T00:19:24.084Z,1006.68
2017-02-26T00:20:04.747Z,1006.69
2017-02-26T00:20:45.411Z,1006.71
2017-02-26T00:21:28.003Z,1006.64
2017-02-26T00:22:08.653Z,1006.72
2017-02-26T00:22:49.318Z,1006.73
2017-02-26T00:23:29.979Z,1006.72
2017-02-26T00:24:10.628Z,1006.65
2017-02-26T00:24:51.270Z,1006.66
2017-02-26T00:25:31.931Z,1006.63
2017-02-26T00:26:12.583Z,1006.59
2017-02-26T00:26:53.244Z,1006.54
2017-02-26T00:27:33.906Z,1006.57
2017-02-26T00:28:14.537Z,1006.54
2017-02-26T00:28:55.134Z,1006.55
2017-02-26T00:29:35.733Z,1006.56
2017-02-26T00:30:16.354Z,1006.54
2017-02-26T00:30:57.008Z,1006.53
2017-02-26T00:31:37.707Z,1006.53
2017-02-26T00:32:18.343Z,1006.47
2017-02-26T00:32:58.935Z,1006.48
2017-02-26T00:33:39.630Z,1006.48
2017-02-26T00:34:20.305Z,1006.51
2017-02-26T00:35:00.947Z,1006.53
2017-02-26T00:35:41.628Z,1006.52
2017-02-26T00:36:23.340Z,1006.53
2017-02-26T00:37:03.910Z,1006.52
2017-02-26T00:37:44.595Z,1006.49
2017-02-26T00:38:25.249Z,1006.47
2017-02-26T00:39:05.878Z,1006.53
2017-02-26T00:39:46.560Z,1006.55
2017-02-26T00:40:27.214Z,1006.56
2017-02-26T00:41:07.897Z,1006.54
2017-02-26T00:41:48.518Z,1006.53
2017-02-26T00:42:29.186Z,1006.55
2017-02-26T00:43:09.882Z,1006.64
2017-02-26T00:43:50.476Z,1006.55
2017-02-26T00:44:31.152Z,1006.58
2017-02-26T00:45:11.793Z,1006.53
2017-02-26T00:45:52.444Z,1006.54
2017-02-26T00:46:33.126Z,1006.6
2017-02-26T00:47:13.754Z,1006.58
2017-02-26T00:47:54.398Z,1006.57
2017-02-26T00:48:35.060Z,1006.56
2017-02-26T00:49:15.714Z,1006.59
2017-02-26T00:49:56.348Z,1006.6
2017-02-26T00:50:36.921Z,1006.59
2017-02-26T00:51:17.554Z,1006.62
2017-02-26T00:51:58.205Z,1006.63
2017-02-26T00:52:38.798Z,1006.6
2017-02-26T00:53:19.413Z,1006.61
2017-02-26T00:54:00.065Z,1006.62
2017-02-26T00:54:40.816Z,1006.6
2017-02-26T00:55:22.510Z,1006.61
2017-02-26T00:56:04.125Z,1006.61
2017-02-26T00:56:44.819Z,1006.59
2017-02-26T00:57:25.475Z,1006.61
2017-02-26T00:58:06.125Z,1006.6
2017-02-26T00:58:46.777Z,1006.57
2017-02-26T00:59:27.436Z,1006.61
2017-02-26T01:00:08.014Z,1006.65
2017-02-26T01:00:48.638Z,1006.67
2017-02-26T01:01:29.302Z,1006.64
2017-02-26T01:02:09.948Z,1006.59
2017-02-26T01:02:50.596Z,1006.59
2017-02-26T01:03:31.248Z,1006.56
2017-02-26T01:04:11.868Z,1006.54
2017-02-26T01:04:52.454Z,1006.58
2017-02-26T01:05:33.110Z,1006.56
2017-02-26T01:06:13.758Z,1006.55
2017-02-26T01:06:54.383Z,1006.6
2017-02-26T01:07:35.049Z,1006.62
2017-02-26T01:08:15.729Z,1006.6
2017-02-26T01:08:56.372Z,1006.62
2017-02-26T01:09:36.952Z,1006.6
2017-02-26T01:10:17.573Z,1006.63
2017-02-26T01:10:58.227Z,1006.6
2017-02-26T01:11:38.811Z,1006.64
2017-02-26T01:12:19.427Z,1006.54
2017-02-26T01:13:00.083Z,1006.5
2017-02-26T01:13:40.652Z,1006.47
2017-02-26T01:14:21.286Z,1006.49
2017-02-26T01:15:01.965Z,1006.48
2017-02-26T01:15:42.589Z,1006.47
2017-02-26T01:16:23.241Z,1006.51
2017-02-26T01:17:03.897Z,1006.48
2017-02-26T01:17:44.548Z,1006.52
2017-02-26T01:18:25.202Z,1006.53
2017-02-26T01:19:05.854Z,1006.48
2017-02-26T01:19:46.506Z,1006.44
2017-02-26T01:20:27.157Z,1006.48
2017-02-26T01:21:07.809Z,1006.36
2017-02-26T01:21:48.466Z,1006.33
2017-02-26T01:22:31.390Z,1006.35
2017-02-26T01:23:12.135Z,1006.39
2017-02-26T01:23:52.985Z,1006.44
2017-02-26T01:24:33.639Z,1006.41
2017-02-26T01:25:14.250Z,1006.42
2017-02-26T01:25:54.969Z,1006.43
2017-02-26T01:26:35.604Z,1006.41
2017-02-26T01:27:16.184Z,1006.43
2017-02-26T01:27:56.859Z,1006.39
2017-02-26T01:28:37.454Z,1006.4
2017-02-26T01:29:18.104Z,1006.34
2017-02-26T01:29:59.083Z,1006.36
2017-02-26T01:30:39.660Z,1006.32
2017-02-26T01:31:20.271Z,1006.31
2017-02-26T01:32:00.921Z,1006.43
2017-02-26T01:32:41.528Z,1006.42
2017-02-26T01:33:22.228Z,1006.4
2017-02-26T01:34:02.878Z,1006.39
2017-02-26T01:34:44.460Z,1006.38
2017-02-26T01:35:25.107Z,1006.38
2017-02-26T01:36:05.761Z,1006.31
2017-02-26T01:36:46.427Z,1006.34
2017-02-26T01:37:27.068Z,1006.32
2017-02-26T01:38:07.719Z,1006.34
2017-02-26T01:38:48.385Z,1006.31
2017-02-26T01:39:29.023Z,1006.34
2017-02-26T01:40:09.679Z,1006.36
2017-02-26T01:40:50.331Z,1006.36
2017-02-26T01:41:30.987Z,1006.32
2017-02-26T01:42:11.644Z,1006.34
2017-02-26T01:42:53.319Z,1006.26
2017-02-26T01:43:33.965Z,1006.26
2017-02-26T01:44:14.539Z,1006.22
2017-02-26T01:44:55.182Z,1006.24
2017-02-26T01:45:35.833Z,1006.23
2017-02-26T01:46:16.405Z,1006.23
2017-02-26T01:46:57.027Z,1006.27
2017-02-26T01:47:37.677Z,1006.23
2017-02-26T01:48:18.266Z,1006.23
2017-02-26T01:48:58.886Z,1006.26
2017-02-26T01:49:39.538Z,1006.27
2017-02-26T01:50:20.131Z,1006.29
2017-02-26T01:51:00.700Z,1006.25
2017-02-26T01:51:43.344Z,1006.27
2017-02-26T01:52:24.003Z,1006.2
2017-02-26T01:53:04.606Z,1006.14
2017-02-26T01:53:45.276Z,1006.16
2017-02-26T01:54:25.951Z,1006.07
2017-02-26T01:55:06.611Z,1006.09
2017-02-26T01:55:47.179Z,1006.09
2017-02-26T01:56:27.763Z,1006.05
2017-02-26T01:57:09.401Z,1006
2017-02-26T01:57:50.048Z,1006.03
2017-02-26T01:58:30.618Z,1006.03
2017-02-26T01:59:11.283Z,1006.07
2017-02-26T01:59:52.915Z,1006.03
2017-02-26T02:00:33.574Z,1006.12
2017-02-26T02:01:14.150Z,1006.06
2017-02-26T02:01:54.816Z,1006.1
2017-02-26T02:02:35.422Z,1006.09
2017-02-26T02:03:16.076Z,1006.03
2017-02-26T02:03:56.659Z,1006.06
2017-02-26T02:04:37.349Z,1006.07
2017-02-26T02:05:17.987Z,1006.06
2017-02-26T02:05:58.674Z,1006
2017-02-26T02:06:39.316Z,1006.03
2017-02-26T02:07:19.950Z,1006.04
2017-02-26T02:08:00.602Z,1005.97
2017-02-26T02:08:41.254Z,1005.98
2017-02-26T02:09:21.912Z,1005.92
2017-02-26T02:10:02.612Z,1005.92
2017-02-26T02:10:43.262Z,1005.87
2017-02-26T02:11:23.909Z,1005.85
2017-02-26T02:12:04.570Z,1005.9
2017-02-26T02:12:45.258Z,1005.85
2017-02-26T02:13:25.907Z,1005.86
2017-02-26T02:14:06.527Z,1005.89
2017-02-26T02:14:47.097Z,1005.9
2017-02-26T02:15:27.680Z,1005.84
2017-02-26T02:16:09.331Z,1005.87
2017-02-26T02:16:49.958Z,1005.89
2017-02-26T02:17:30.527Z,1005.85
2017-02-26T02:18:11.561Z,1005.85
2017-02-26T02:18:52.230Z,1005.81
2017-02-26T02:19:32.877Z,1005.86
2017-02-26T02:20:13.534Z,1005.85
2017-02-26T02:20:54.185Z,1005.86
2017-02-26T02:21:34.834Z,1005.8
2017-02-26T02:22:15.590Z,1005.85
2017-02-26T02:22:56.244Z,1005.82
2017-02-26T02:23:36.895Z,1005.85
2017-02-26T02:24:17.549Z,1005.81
2017-02-26T02:24:58.201Z,1005.79
2017-02-26T02:25:38.855Z,1005.78
2017-02-26T02:26:19.518Z,1005.81
2017-02-26T02:27:00.160Z,1005.85
2017-02-26T02:27:40.815Z,1005.78
2017-02-26T02:28:21.466Z,1005.7
2017-02-26T02:29:02.119Z,1005.77
2017-02-26T02:29:42.774Z,1005.7
2017-02-26T02:30:23.421Z,1005.66
2017-02-26T02:31:04.077Z,1005.77
2017-02-26T02:31:44.736Z,1005.75
2017-02-26T02:32:25.384Z,1005.74
2017-02-26T02:33:06.035Z,1005.7
2017-02-26T02:33:46.686Z,1005.76
2017-02-26T02:34:27.358Z,1005.71
2017-02-26T02:35:08.001Z,1005.7
2017-02-26T02:35:48.657Z,1005.65
2017-02-26T02:36:29.300Z,1005.69
2017-02-26T02:37:09.953Z,1005.63
2017-02-26T02:37:50.621Z,1005.61
2017-02-26T02:38:31.260Z,1005.63
2017-02-26T02:39:11.912Z,1005.6
2017-02-26T02:39:52.564Z,1005.6
2017-02-26T02:40:33.218Z,1005.65
2017-02-26T02:41:13.871Z,1005.64
2017-02-26T02:41:55.546Z,1005.62
2017-02-26T02:42:36.202Z,1005.66
2017-02-26T02:43:16.860Z,1005.64
2017-02-26T02:43:57.515Z,1005.65
2017-02-26T02:44:38.160Z,1005.61
2017-02-26T02:45:18.818Z,1005.64
2017-02-26T02:45:59.507Z,1005.59
2017-02-26T02:46:40.230Z,1005.59
2017-02-26T02:47:20.879Z,1005.55
2017-02-26T02:48:01.527Z,1005.59
2017-02-26T02:48:42.183Z,1005.59
2017-02-26T02:49:22.835Z,1005.58
2017-02-26T02:50:03.485Z,1005.54
2017-02-26T02:50:44.559Z,1005.53
2017-02-26T02:51:25.199Z,1005.59
2017-02-26T02:52:05.858Z,1005.5
2017-02-26T02:52:46.506Z,1005.55
2017-02-26T02:53:27.169Z,1005.51
2017-02-26T02:54:09.347Z,1005.52
2017-02-26T02:54:50.007Z,1005.51
2017-02-26T02:55:30.665Z,1005.48
2017-02-26T02:56:12.335Z,1005.42
2017-02-26T02:56:52.995Z,1005.42
2017-02-26T02:57:33.643Z,1005.37
2017-02-26T02:58:14.310Z,1005.42
2017-02-26T02:58:54.942Z,1005.33
2017-02-26T02:59:35.602Z,1005.39
2017-02-26T03:00:16.259Z,1005.34
2017-02-26T03:00:56.902Z,1005.32
2017-02-26T03:01:37.559Z,1005.3
2017-02-26T03:02:18.209Z,1005.31
2017-02-26T03:02:58.875Z,1005.28
2017-02-26T03:03:39.529Z,1005.27
2017-02-26T03:04:20.170Z,1005.3
2017-02-26T03:05:00.835Z,1005.29
2017-02-26T03:05:41.477Z,1005.29
2017-02-26T03:06:22.128Z,1005.28
2017-02-26T03:07:02.785Z,1005.28
2017-02-26T03:07:43.440Z,1005.23
2017-02-26T03:08:24.086Z,1005.24
2017-02-26T03:09:04.740Z,1005.24
2017-02-26T03:09:45.395Z,1005.26
2017-02-26T03:10:26.046Z,1005.24
2017-02-26T03:11:06.697Z,1005.21
2017-02-26T03:11:47.351Z,1005.2
2017-02-26T03:12:28.003Z,1005.17
2017-02-26T03:13:08.674Z,1005.19
2017-02-26T03:13:49.314Z,1005.15
2017-02-26T03:14:29.876Z,1005.19
2017-02-26T03:15:10.491Z,1005.13
2017-02-26T03:15:51.168Z,1005.16
2017-02-26T03:16:31.838Z,1005.13
2017-02-26T03:17:12.413Z,1005.07
2017-02-26T03:17:53.068Z,1005.03
2017-02-26T03:18:33.676Z,1005.01
2017-02-26T03:19:14.327Z,1005.05
2017-02-26T03:19:54.896Z,1005.03
2017-02-26T03:20:35.503Z,1005.03
2017-02-26T03:21:16.198Z,1004.94
2017-02-26T03:21:56.839Z,1005.01
2017-02-26T03:22:37.401Z,1005.02
2017-02-26T03:23:18.021Z,1004.98
2017-02-26T03:23:58.693Z,1004.91
2017-02-26T03:24:39.355Z,1004.94
2017-02-26T03:25:20.000Z,1004.96
2017-02-26T03:26:00.653Z,1004.95
2017-02-26T03:26:41.306Z,1004.93
2017-02-26T03:27:21.971Z,1004.92
2017-02-26T03:28:02.610Z,1004.93
2017-02-26T03:28:43.264Z,1004.92
2017-02-26T03:29:23.924Z,1004.88
2017-02-26T03:30:04.568Z,1004.91
2017-02-26T03:30:45.225Z,1004.9
2017-02-26T03:31:25.875Z,1004.93
2017-02-26T03:32:06.540Z,1004.95
2017-02-26T03:32:47.180Z,1004.97
2017-02-26T03:33:28.862Z,1004.94
2017-02-26T03:34:09.513Z,1004.87
2017-02-26T03:34:50.074Z,1004.84
2017-02-26T03:35:30.776Z,1004.88
2017-02-26T03:36:11.463Z,1004.86
2017-02-26T03:36:52.126Z,1004.82
2017-02-26T03:37:32.715Z,1004.86
2017-02-26T03:38:13.401Z,1004.83
2017-02-26T03:38:54.073Z,1004.81
2017-02-26T03:39:34.736Z,1004.78
2017-02-26T03:40:15.314Z,1004.8
2017-02-26T03:40:55.950Z,1004.82
2017-02-26T03:41:36.596Z,1004.77
2017-02-26T03:42:17.580Z,1004.79
2017-02-26T03:42:58.209Z,1004.77
2017-02-26T03:43:38.856Z,1004.78
2017-02-26T03:44:19.426Z,1004.75
2017-02-26T03:45:00.063Z,1004.69
2017-02-26T03:45:40.716Z,1004.64
2017-02-26T03:46:21.283Z,1004.67
2017-02-26T03:47:01.916Z,1004.66
2017-02-26T03:47:42.574Z,1004.68
2017-02-26T03:48:23.154Z,1004.61
2017-02-26T03:49:03.874Z,1004.65
2017-02-26T03:49:45.554Z,1004.67
2017-02-26T03:50:26.144Z,1004.73
2017-02-26T03:51:06.759Z,1004.68
2017-02-26T03:51:47.410Z,1004.65
2017-02-26T03:52:28.004Z,1004.7
2017-02-26T03:53:08.714Z,1004.69
2017-02-26T03:53:49.371Z,1004.69
2017-02-26T03:54:29.936Z,1004.66
2017-02-26T03:55:10.584Z,1004.67
2017-02-26T03:55:51.239Z,1004.68
2017-02-26T03:56:31.878Z,1004.7
2017-02-26T03:57:12.528Z,1004.7
2017-02-26T03:57:53.203Z,1004.75
2017-02-26T03:58:33.835Z,1004.78
2017-02-26T03:59:14.503Z,1004.78
2017-02-26T03:59:55.141Z,1004.82
2017-02-26T04:00:36.818Z,1004.8
2017-02-26T04:01:17.470Z,1004.84
2017-02-26T04:01:58.124Z,1004.83
2017-02-26T04:02:38.780Z,1004.8
2017-02-26T04:03:19.369Z,1004.81
2017-02-26T04:03:59.996Z,1004.83
2017-02-26T04:04:40.631Z,1004.86
2017-02-26T04:05:21.286Z,1004.85
2017-02-26T04:06:01.977Z,1004.84
2017-02-26T04:06:42.579Z,1004.84
2017-02-26T04:07:23.239Z,1004.81
2017-02-26T04:08:03.909Z,1004.81
2017-02-26T04:08:44.593Z,1004.83
2017-02-26T04:09:25.208Z,1004.82
2017-02-26T04:10:05.872Z,1004.82
2017-02-26T04:10:46.441Z,1004.84
2017-02-26T04:11:27.124Z,1004.85
2017-02-26T04:12:07.702Z,1004.84
2017-02-26T04:12:48.374Z,1004.86
2017-02-26T04:13:28.931Z,1004.86
2017-02-26T04:14:09.536Z,1004.9
2017-02-26T04:14:50.235Z,1004.95
2017-02-26T04:15:30.882Z,1004.97
2017-02-26T04:16:11.545Z,1004.9
2017-02-26T04:16:52.184Z,1004.93
2017-02-26T04:17:32.829Z,1004.94
2017-02-26T04:18:13.486Z,1004.87
2017-02-26T04:18:54.139Z,1004.81
2017-02-26T04:19:34.797Z,1004.83
2017-02-26T04:20:15.459Z,1004.82
2017-02-26T04:20:56.107Z,1004.79
2017-02-26T04:21:36.759Z,1004.77
2017-02-26T04:22:17.399Z,1004.77
2017-02-26T04:22:58.067Z,1004.8
2017-02-26T04:23:38.709Z,1004.77
2017-02-26T04:24:19.367Z,1004.77
2017-02-26T04:25:00.031Z,1004.77
2017-02-26T04:25:40.677Z,1004.76
2017-02-26T04:26:21.338Z,1004.73
2017-02-26T04:27:03.011Z,1004.73
2017-02-26T04:27:44.689Z,1004.8
2017-02-26T04:28:25.734Z,1004.76
2017-02-26T04:29:06.786Z,1004.76
2017-02-26T04:29:47.466Z,1004.79
2017-02-26T04:30:28.111Z,1004.81
2017-02-26T04:31:08.763Z,1004.79
2017-02-26T04:31:49.417Z,1004.76
2017-02-26T04:32:30.071Z,1004.79
2017-02-26T04:33:10.722Z,1004.74
2017-02-26T04:33:51.373Z,1004.82
2017-02-26T04:34:32.027Z,1004.82
2017-02-26T04:35:12.682Z,1004.85
2017-02-26T04:35:53.313Z,1004.84
2017-02-26T04:36:33.941Z,1004.84
2017-02-26T04:37:14.535Z,1004.79
2017-02-26T04:37:55.191Z,1004.82
2017-02-26T04:38:35.749Z,1004.83
2017-02-26T04:39:16.758Z,1004.8
2017-02-26T04:39:58.481Z,1004.77
2017-02-26T04:40:39.145Z,1004.76
2017-02-26T04:41:20.808Z,1004.76
2017-02-26T04:42:01.466Z,1004.76
2017-02-26T04:42:42.113Z,1004.74
2017-02-26T04:43:22.767Z,1004.75
2017-02-26T04:44:03.418Z,1004.71
2017-02-26T04:44:45.103Z,1004.76
2017-02-26T04:45:25.758Z,1004.75
2017-02-26T04:46:06.331Z,1004.74
2017-02-26T04:46:46.910Z,1004.68
2017-02-26T04:47:27.510Z,1004.7
2017-02-26T04:48:08.158Z,1004.69
2017-02-26T04:48:48.735Z,1004.67
2017-02-26T04:49:29.331Z,1004.71
2017-02-26T04:50:10.932Z,1004.69
2017-02-26T04:50:51.586Z,1004.65
2017-02-26T04:51:32.241Z,1004.65
2017-02-26T04:52:12.891Z,1004.64
2017-02-26T04:52:54.976Z,1004.66
2017-02-26T04:53:35.631Z,1004.66
2017-02-26T04:54:16.276Z,1004.64
2017-02-26T04:54:56.944Z,1004.62
2017-02-26T04:55:37.597Z,1004.57
2017-02-26T04:56:18.250Z,1004.63
2017-02-26T04:56:59.302Z,1004.65
2017-02-26T04:57:39.971Z,1004.66
2017-02-26T04:58:20.590Z,1004.7
2017-02-26T04:59:01.164Z,1004.64
2017-02-26T04:59:41.813Z,1004.59
2017-02-26T05:00:22.475Z,1004.6
2017-02-26T05:01:03.047Z,1004.66
2017-02-26T05:01:43.650Z,1004.61
2017-02-26T05:02:24.211Z,1004.61
2017-02-26T05:03:04.887Z,1004.6
2017-02-26T05:03:45.454Z,1004.61
2017-02-26T05:04:26.138Z,1004.58
2017-02-26T05:05:06.729Z,1004.6
2017-02-26T05:05:47.390Z,1004.61
2017-02-26T05:06:28.046Z,1004.61
2017-02-26T05:07:08.717Z,1004.59
2017-02-26T05:07:49.415Z,1004.53
2017-02-26T05:08:30.521Z,1004.56
2017-02-26T05:09:11.179Z,1004.49
2017-02-26T05:09:51.814Z,1004.49
2017-02-26T05:10:32.473Z,1004.48
2017-02-26T05:11:13.127Z,1004.45
2017-02-26T05:11:53.778Z,1004.42
2017-02-26T05:12:34.431Z,1004.4
2017-02-26T05:13:15.082Z,1004.38
2017-02-26T05:13:55.737Z,1004.37
2017-02-26T05:14:36.300Z,1004.39
2017-02-26T05:15:16.939Z,1004.41
2017-02-26T05:15:57.593Z,1004.41
2017-02-26T05:16:38.191Z,1004.44
2017-02-26T05:17:18.863Z,1004.38
2017-02-26T05:17:59.449Z,1004.39
2017-02-26T05:18:40.011Z,1004.36
2017-02-26T05:19:21.682Z,1004.36
2017-02-26T05:20:02.334Z,1004.37
2017-02-26T05:20:42.983Z,1004.34
2017-02-26T05:21:23.637Z,1004.35
2017-02-26T05:22:04.291Z,1004.32
2017-02-26T05:22:44.950Z,1004.29
2017-02-26T05:23:25.602Z,1004.3
2017-02-26T05:24:06.256Z,1004.26
2017-02-26T05:24:46.835Z,1004.3
2017-02-26T05:25:27.468Z,1004.29
2017-02-26T05:26:08.107Z,1004.31
2017-02-26T05:26:48.675Z,1004.28
2017-02-26T05:27:29.309Z,1004.27
2017-02-26T05:28:09.969Z,1004.27
2017-02-26T05:28:50.536Z,1004.26
2017-02-26T05:29:32.187Z,1004.23
2017-02-26T05:30:12.844Z,1004.24
2017-02-26T05:30:53.501Z,1004.17
2017-02-26T05:31:34.150Z,1004.13
2017-02-26T05:32:14.804Z,1004.16
2017-02-26T05:32:55.454Z,1004.17
2017-02-26T05:33:36.107Z,1004.15
2017-02-26T05:34:16.762Z,1004.13
2017-02-26T05:34:57.341Z,1004.12
2017-02-26T05:35:37.918Z,1004.08
2017-02-26T05:36:18.642Z,1004.08
2017-02-26T05:36:59.267Z,1004.04
2017-02-26T05:37:39.856Z,1004.1
2017-02-26T05:38:20.527Z,1004.09
2017-02-26T05:39:01.120Z,1004.11
2017-02-26T05:39:41.779Z,1004.07
2017-02-26T05:40:22.438Z,1004.15
2017-02-26T05:41:03.085Z,1004.16
2017-02-26T05:41:43.740Z,1004.16
2017-02-26T05:42:24.389Z,1004.13
2017-02-26T05:43:05.054Z,1004.15
2017-02-26T05:43:46.727Z,1004.18
2017-02-26T05:44:27.374Z,1004.23
2017-02-26T05:45:08.070Z,1004.21
2017-02-26T05:45:48.686Z,1004.19
2017-02-26T05:46:29.336Z,1004.2
2017-02-26T05:47:09.913Z,1004.15
2017-02-26T05:47:50.642Z,1004.17
2017-02-26T05:48:31.194Z,1004.11
2017-02-26T05:49:12.861Z,1004.12
2017-02-26T05:49:53.519Z,1004.09
2017-02-26T05:50:34.172Z,1004.13
2017-02-26T05:51:14.828Z,1004.1
2017-02-26T05:51:55.480Z,1004.09
2017-02-26T05:52:36.138Z,1004.1
2017-02-26T05:53:16.790Z,1004.08
2017-02-26T05:53:57.439Z,1004.09
2017-02-26T05:54:38.089Z,1004.03
2017-02-26T05:55:18.673Z,1004.11
2017-02-26T05:55:59.331Z,1004.05
2017-02-26T05:56:39.947Z,1004.04
2017-02-26T05:57:20.516Z,1004.08
2017-02-26T05:58:01.155Z,1004.07
2017-02-26T05:58:41.807Z,1004.07
2017-02-26T05:59:22.393Z,1004.09
2017-02-26T06:00:03.006Z,1004.09
2017-02-26T06:00:43.663Z,1004.15
2017-02-26T06:01:24.252Z,1004.12
2017-02-26T06:02:04.941Z,1004.14
2017-02-26T06:02:45.629Z,1004.15
2017-02-26T06:03:26.200Z,1004.13
2017-02-26T06:04:06.820Z,1004.09
2017-02-26T06:04:47.390Z,1004.17
2017-02-26T06:05:27.997Z,1004.13
2017-02-26T06:06:08.569Z,1004.2
2017-02-26T06:06:49.231Z,1004.2
2017-02-26T06:07:29.885Z,1004.21
2017-02-26T06:08:10.486Z,1004.18
2017-02-26T06:08:51.102Z,1004.17
2017-02-26T06:09:31.739Z,1004.17
2017-02-26T06:10:12.394Z,1004.19
2017-02-26T06:10:53.045Z,1004.15
2017-02-26T06:11:33.651Z,1004.13
2017-02-26T06:12:14.303Z,1004.15
2017-02-26T06:12:54.972Z,1004.12
2017-02-26T06:13:35.616Z,1004.14
2017-02-26T06:14:16.261Z,1004.11
2017-02-26T06:14:56.936Z,1004.17
2017-02-26T06:15:37.606Z,1004.11
2017-02-26T06:16:18.269Z,1004.16
2017-02-26T06:16:58.848Z,1004.16
2017-02-26T06:17:39.548Z,1004.12
2017-02-26T06:18:21.149Z,1004.13
2017-02-26T06:19:01.810Z,1004.16
2017-02-26T06:19:42.367Z,1004.11
2017-02-26T06:20:23.028Z,1004.14
2017-02-26T06:21:03.675Z,1004.17
2017-02-26T06:21:44.242Z,1004.15
2017-02-26T06:22:24.865Z,1004.13
2017-02-26T06:23:05.516Z,1004.13
2017-02-26T06:23:46.093Z,1004.17
2017-02-26T06:24:26.720Z,1004.2
2017-02-26T06:25:07.373Z,1004.17
2017-02-26T06:25:48.026Z,1004.16
2017-02-26T06:26:29.079Z,1004.16
2017-02-26T06:27:09.740Z,1004.14
2017-02-26T06:27:50.399Z,1004.17
2017-02-26T06:28:31.054Z,1004.17
2017-02-26T06:29:11.704Z,1004.21
2017-02-26T06:29:53.389Z,1004.16
2017-02-26T06:30:34.033Z,1004.13
2017-02-26T06:31:14.681Z,1004.14
2017-02-26T06:31:55.346Z,1004.1
2017-02-26T06:32:35.994Z,1004.16
2017-02-26T06:33:16.555Z,1004.09
2017-02-26T06:33:57.192Z,1004.09
2017-02-26T06:34:37.844Z,1004.07
2017-02-26T06:35:18.508Z,1004.06
2017-02-26T06:35:59.077Z,1004.09
2017-02-26T06:36:39.783Z,1004.09
2017-02-26T06:37:20.478Z,1004.12
2017-02-26T06:38:01.114Z,1004.11
2017-02-26T06:38:41.678Z,1004.12
2017-02-26T06:39:22.292Z,1004.14
2017-02-26T06:40:02.976Z,1004.06
2017-02-26T06:40:43.623Z,1004.04
2017-02-26T06:41:24.191Z,1004.04
2017-02-26T06:42:04.844Z,1004.05
2017-02-26T06:42:45.478Z,1004.1
2017-02-26T06:43:26.050Z,1004.05
2017-02-26T06:44:06.682Z,1004.06
2017-02-26T06:44:47.335Z,1004.05
2017-02-26T06:45:27.991Z,1004.11
2017-02-26T06:46:08.645Z,1004.12
2017-02-26T06:46:49.305Z,1004.11
2017-02-26T06:47:29.857Z,1004.16
2017-02-26T06:48:11.518Z,1004.18
2017-02-26T06:48:52.179Z,1004.18
2017-02-26T06:49:32.829Z,1004.23
2017-02-26T06:50:13.420Z,1004.25
2017-02-26T06:50:54.081Z,1004.25
2017-02-26T06:51:34.682Z,1004.23
2017-02-26T06:52:15.339Z,1004.24
2017-02-26T06:52:55.930Z,1004.27
2017-02-26T06:53:36.604Z,1004.23
2017-02-26T06:54:18.219Z,1004.21
2017-02-26T06:54:59.888Z,1004.18
2017-02-26T06:55:41.416Z,1004.3
2017-02-26T06:56:22.071Z,1004.29
2017-02-26T06:57:02.681Z,1004.29
2017-02-26T06:57:43.320Z,1004.3
2017-02-26T06:58:23.883Z,1004.31
2017-02-26T06:59:04.502Z,1004.37
2017-02-26T06:59:45.175Z,1004.36
2017-02-26T07:00:25.834Z,1004.4
2017-02-26T07:01:06.404Z,1004.39
2017-02-26T07:01:46.985Z,1004.38
2017-02-26T07:02:27.586Z,1004.36
2017-02-26T07:03:08.246Z,1004.37
2017-02-26T07:03:48.799Z,1004.36
2017-02-26T07:04:29.416Z,1004.38
2017-02-26T07:05:10.096Z,1004.38
2017-02-26T07:05:50.748Z,1004.35
2017-02-26T07:06:31.439Z,1004.34
2017-02-26T07:07:12.055Z,1004.36
2017-02-26T07:07:52.707Z,1004.38
2017-02-26T07:08:34.279Z,1004.32
2017-02-26T07:09:14.930Z,1004.37
2017-02-26T07:09:55.599Z,1004.41
2017-02-26T07:10:36.244Z,1004.41
2017-02-26T07:11:16.896Z,1004.4
2017-02-26T07:11:57.544Z,1004.41
2017-02-26T07:12:38.196Z,1004.41
2017-02-26T07:13:18.854Z,1004.45
2017-02-26T07:13:59.507Z,1004.45
2017-02-26T07:14:40.159Z,1004.46
2017-02-26T07:15:20.812Z,1004.49
2017-02-26T07:16:01.465Z,1004.55
2017-02-26T07:16:43.143Z,1004.53
2017-02-26T07:17:23.793Z,1004.56
2017-02-26T07:18:06.388Z,1004.59
2017-02-26T07:18:47.045Z,1004.63
2017-02-26T07:19:27.699Z,1004.62
2017-02-26T07:20:08.286Z,1004.6
2017-02-26T07:20:48.964Z,1004.62
2017-02-26T07:21:29.684Z,1004.6
2017-02-26T07:22:10.310Z,1004.65
2017-02-26T07:22:50.890Z,1004.61
2017-02-26T07:23:31.590Z,1004.61
2017-02-26T07:24:12.167Z,1004.63
2017-02-26T07:24:52.822Z,1004.65
2017-02-26T07:25:33.452Z,1004.64
2017-02-26T07:26:14.131Z,1004.64
2017-02-26T07:26:54.780Z,1004.58
2017-02-26T07:27:35.437Z,1004.6
2017-02-26T07:28:16.041Z,1004.62
2017-02-26T07:28:56.701Z,1004.7
2017-02-26T07:29:37.323Z,1004.67
2017-02-26T07:30:18.974Z,1004.72
2017-02-26T07:30:59.621Z,1004.74
2017-02-26T07:31:40.240Z,1004.7
2017-02-26T07:32:20.924Z,1004.76
2017-02-26T07:33:02.603Z,1004.74
2017-02-26T07:33:43.255Z,1004.76
2017-02-26T07:34:23.917Z,1004.78
2017-02-26T07:35:04.563Z,1004.81
2017-02-26T07:35:45.220Z,1004.78
2017-02-26T07:36:25.871Z,1004.73
2017-02-26T07:37:06.527Z,1004.79
2017-02-26T07:37:47.377Z,1004.73
2017-02-26T07:38:28.030Z,1004.72
2017-02-26T07:39:08.684Z,1004.74
2017-02-26T07:39:49.354Z,1004.78
2017-02-26T07:40:29.990Z,1004.78
2017-02-26T07:41:10.645Z,1004.77
2017-02-26T07:41:51.298Z,1004.74
2017-02-26T07:42:31.951Z,1004.75
2017-02-26T07:43:12.604Z,1004.72
2017-02-26T07:43:53.257Z,1004.72
2017-02-26T07:44:33.913Z,1004.7
2017-02-26T07:45:14.483Z,1004.72
2017-02-26T07:45:55.083Z,1004.7
2017-02-26T07:46:35.658Z,1004.7
2017-02-26T07:47:16.335Z,1004.71
2017-02-26T07:47:56.922Z,1004.71
2017-02-26T07:48:37.593Z,1004.7
2017-02-26T07:49:18.215Z,1004.68
2017-02-26T07:49:58.947Z,1004.71
2017-02-26T07:50:39.538Z,1004.74
2017-02-26T07:51:20.207Z,1004.74
2017-02-26T07:52:00.813Z,1004.76
2017-02-26T07:52:41.764Z,1004.71
2017-02-26T07:53:22.346Z,1004.65
2017-02-26T07:54:03.017Z,1004.66
2017-02-26T07:54:44.680Z,1004.7
2017-02-26T07:55:25.405Z,1004.76
2017-02-26T07:56:05.970Z,1004.72
2017-02-26T07:56:46.563Z,1004.73
2017-02-26T07:57:27.155Z,1004.71
2017-02-26T07:58:07.736Z,1004.79
2017-02-26T07:58:48.357Z,1004.72
2017-02-26T07:59:29.020Z,1004.76
2017-02-26T08:00:09.613Z,1004.74
2017-02-26T08:00:50.373Z,1004.86
2017-02-26T08:01:31.027Z,1004.76
2017-02-26T08:02:12.703Z,1004.76
2017-02-26T08:02:53.356Z,1004.76
2017-02-26T08:03:34.011Z,1004.82
2017-02-26T08:04:14.599Z,1004.81
2017-02-26T08:04:55.203Z,1004.84
2017-02-26T08:05:35.865Z,1004.79
2017-02-26T08:06:16.450Z,1004.78
2017-02-26T08:06:57.116Z,1004.94
2017-02-26T08:07:37.718Z,1004.86
2017-02-26T08:08:18.375Z,1004.85
2017-02-26T08:08:58.930Z,1004.87
2017-02-26T08:09:39.534Z,1004.91
2017-02-26T08:10:20.163Z,1004.93
2017-02-26T08:11:00.787Z,1004.95
2017-02-26T08:11:41.669Z,1004.96
2017-02-26T08:12:22.347Z,1005.03
2017-02-26T08:13:02.951Z,1005
2017-02-26T08:13:43.601Z,1005
2017-02-26T08:14:24.162Z,1004.9